Vue régionale

METAR et TAF

Samedi 01 octobre 2022 à 00h25

Visibilités horizontales observées à différents aéroports. Les observations (METAR) et prévisions aéronautiques (TAF) complètes sont disponibles en cliquant sur l’icône correspondante.

  • Luxemburg (ELLX)

    Taf: TAF ELLX 301700Z 3018/0124 22007KT CAVOK BECMG 0101/0103 BKN012 TEMPO 0103/0108 22020G30KT 3500 RA BKN005 BECMG 0109/0111 SCT012 TEMPO 0111/0120 4000 SHRA SCT015TCU=

    Metar: METAR ELLX 302150Z 20007KT CAVOK 09/06 Q1011 NOSIG=

  • Spangdahlem (ETAD)

    Taf: TAF ETAD 302000Z 3020/0202 21012KT 9999 SCT040 QNH2979INS BECMG 0102/0103 22010G20KT 6000 RA BKN015 640909 QNH2972INS TEMPO 0103/0106 3200 +RA OVC008 BECMG 0108/0109 24010G20KT 9000 -SHRA BKN020 QNH2976INS BECMG 0113/0114 25012KT 9999 NSW BKN030 620806 QNH2981INS BECMG 0200/0201 24012KT 9999 BKN010 QNH3000INS TX16/0114Z TN07/0102Z=

    Metar: METAR ETAD 302155Z AUTO 21007KT 9999 CLR 08/05 A2983 RMK AO2 SLP096 T00820050 $=

  • Metz/Nancy (LFJL)

    Taf: TAF LFJL 301700Z 3018/0118 19006KT 9999 SCT030 BECMG 0100/0102 20012KT TEMPO 0103/0109 21018G30KT 3000 RA BKN005 TEMPO 0110/0114 BKN003 TEMPO 0114/0118 26015G25KT 4000 SHRA FEW030CB=

    Metar: METAR LFJL 302200Z AUTO 17010KT CAVOK 09/06 Q1013 NOSIG=

  • Saarbrücken/Intl (EDDR)

    Taf: TAF EDDR 301700Z 3018/0118 22005KT CAVOK BECMG 3022/3024 21010KT BECMG 0104/0107 21015G25KT BKN014 TEMPO 0104/0108 4000 RA BKN004 TEMPO 0108/0111 BKN008 BECMG 0114/0117 24010KT SCT014 TEMPO 0114/0118 25020G35KT 4000 SHRA BKN020CB=

    Metar: METAR EDDR 302150Z AUTO 19004KT CAVOK 09/05 Q1012=

  • Hahn (EDFH)

    Taf: TAF EDFH 301700Z 3018/0118 23005KT 9999 FEW040 BECMG 3021/3023 22010KT BECMG 0101/0103 22015G25KT BKN014 TEMPO 0103/0107 4000 RA BKN004 TEMPO 0107/0112 BKN008 BECMG 0112/0114 SCT014 TEMPO 0114/0118 26020G35KT 4000 SHRA BKN014CB BECMG 0116/0118 26012KT=

    Metar: METAR EDFH 302150Z 22009KT CAVOK 07/04 Q1011=

  • Ramstein (ETAR)

    Taf: TAF ETAR 301800Z 3018/0124 22006KT 9999 SCT030 QNH2986INS BECMG 0105/0106 21010G20KT 8000 -RA OVC020 QNH2980INS TEMPO 0107/0112 23015G25KT OVC005 510004 BECMG 0112/0113 25010G15KT 9000 -SHRA OVC020 QNH2984INS BECMG 0116/0117 26012KT 9000 -SHRA OVC020 550209 QNH2990INS TX14/0116Z TN07/0101Z=

    Metar: METAR ETAR 302155Z AUTO 00000KT 9999 CLR 05/03 A2989 RMK AO2 SLP131 T00510031 $=

  • Nancy/Ochey (LFSO)

    Taf: TAF LFSO 302000Z NIL=

    Metar: METAR LFSO 302200Z AUTO 19010KT CAVOK 09/05 Q1013=

  • Liège Bierset (EBLG)

    Taf: TAF EBLG 301700Z 3018/0124 19014KT CAVOK TEMPO 3023/0103 20018G30KT 3500 RA RADZ BECMG 0100/0102 SCT006 BKN010 PROB30 TEMPO 0102/0109 2500 DZ DZRA BKN006 BECMG 0108/0110 SCT018 PROB40 TEMPO 0110/0118 26015G25KT 4000 SHRA=

    Metar: METAR EBLG 302150Z 20014KT CAVOK 12/07 Q1008 NOSIG=

  • Saint-Dizier (LFSI)

    Taf: TAF LFSI 302000Z 3021/0121 18010KT CAVOK BECMG 0101/0103 20015G25KT RA TEMPO 0103/0109 20020G30KT BKN010 BKN020 BKN025 BECMG 0109/0111 24010KT NSW BKN005 BKN010 BKN090 BECMG 0115/0117 BKN030 BKN050 BKN060=

    Metar: METAR LFSI 302200Z AUTO 19008KT CAVOK 11/07 Q1012=

  • Maastricht/Zuid Limburg (EHBK)

    Taf: TAF EHBK 301649Z 3018/0124 19012KT CAVOK BECMG 3022/3024 20015G25KT 7000 RA TEMPO 0102/0106 21020G35KT 4000 RADZ SCT008 BKN014 BECMG 0106/0108 21010KT 4500 BR BKN008 BECMG 0109/0112 27012KT 9999 NSW BKN025 PROB40 TEMPO 0109/0117 27015G25KT 6000 SHRA FEW020CB BECMG 0117/0119 23010KT PROB30 TEMPO 0122/0124 6000 SHRA FEW020CB=

    Metar: METAR EHBK 302155Z AUTO 20017KT 170V230 9999 NSC 13/07 Q1007=

  • Köln/Köln-Bonn (EDDK)

    Taf: TAF EDDK 301700Z 3018/0124 16006KT 9999 SCT020 BECMG 3023/0102 16011KT TEMPO 0102/0106 RA PROB30 TEMPO 0105/0107 BKN012 BECMG 0108/0111 25012KT TEMPO 0110/0118 SHRA BKN015TCU PROB30 TEMPO 0111/0115 24020G30KT TSRA BKN012CB BECMG 0116/0119 23007KT=

    Metar: METAR EDDK 302150Z AUTO 16008KT CAVOK 10/06 Q1010 NOSIG=

  • Charleroi (EBCI)

    Taf: TAF EBCI 301700Z 3018/0124 19014KT CAVOK TEMPO 3022/0103 20018G30KT 3500 RA RADZ BECMG 3023/0101 SCT006 BKN010 PROB40 TEMPO 0101/0107 2500 DZ DZRA BKN005 BECMG 0107/0109 SCT018 PROB30 TEMPO 0110/0118 26015G25KT 4000 SHRA=

    Metar: METAR EBCI 302150Z 20014KT 9999 -RA SCT045 11/07 Q1007 NOSIG=

  • Wiesbaden (ETOU)

    Taf: TAF ETOU 302000Z 3020/0202 20009KT 9999 SCT040 QNH2988INS BECMG 0100/0101 21010G15KT 9999 SCT020 BKN030 QNH2978INS BECMG 0104/0105 20012G18KT 6000 -SHRA BKN015 640709 540006 QNH2978INS TEMPO 0105/0108 20015G25KT 3200 SHRA BKN005 OVC010 BECMG 0108/0109 22015G20KT 9999 NSW BKN015 620709 540006 QNH2976INS BECMG 0110/0111 25012G18KT 9999 VCTS BKN025CB 620708 540209 QNH2976INS TEMPO 0112/0116 26020G30KT 5000 -TSRA BECMG 0117/0118 24009KT 9999 FEW015 SCT020 BKN025 QNH2984INS TX17/0114Z TN07/0103Z LAST NO AMDS AFT 3020=

    Metar: METAR ETOU 302155Z AUTO 00000KT 9999 CLR 07/07 A2989 RMK AO2 SLP126 T00660065 $=

  • Karlsruhe/Baden-Baden (EDSB)

    Taf: TAF EDSB 301700Z 3018/0118 VRB03KT CAVOK BECMG 3021/3023 20005KT BECMG 0100/0102 20010KT BECMG 0102/0105 20015G25KT TEMPO 0106/0111 20020G35KT RA TEMPO 0115/0118 24020G35KT 4000 SHRA BKN025CB BECMG 0115/0118 21012KT=

    Metar: METAR EDSB 302150Z 21004KT CAVOK 08/07 Q1014=

  • Chalons/Vatry (LFOK)

    Taf: TAF LFOK 301700Z 3018/0118 20010KT 9999 SCT030 BECMG 0100/0103 19020G30KT RA BKN013 OVC025 TEMPO 0103/0110 3000 BKN005 OVC013 FM011000 27015KT 9999 SCT030=

    Metar: METAR LFOK 302200Z AUTO 20012KT CAVOK 11/08 Q1012 NOSIG=

  • Frankfurt/Main (EDDF)

    Taf: TAF EDDF 301700Z 3018/0124 19005KT CAVOK BECMG 0102/0105 19010KT BKN030 TEMPO 0105/0109 RA PROB30 TEMPO 0106/0108 4000 RA BKN012 BECMG 0106/0109 20015G25KT BECMG 0112/0114 SCT030 TEMPO 0114/0120 25020G35KT 4000 SHRA BKN025CB BECMG 0116/0119 22010KT=

    Metar: METAR EDDF 302150Z AUTO VRB02KT CAVOK 07/06 Q1012 NOSIG=

  • Brüssel (EBBR)

    Taf: TAF EBBR 301700Z 3018/0124 19014KT CAVOK TEMPO 3022/0103 20018G30KT 3500 RA RADZ BECMG 3023/0101 SCT008 BKN012 PROB40 TEMPO 0101/0107 2500 DZ DZRA BKN006 BECMG 0107/0109 SCT020 PROB30 TEMPO 0110/0118 26015G25KT 4000 SHRA=

    Metar: METAR EBBR 302150Z 21013KT 9999 -RA SCT030 12/08 Q1006 TEMPO 22018G30KT RA=

  • Düsseldorf (EDDL)

    Taf: TAF EDDL 301700Z 3018/0124 18009KT 9999 BKN035 BECMG 3021/3024 18014KT TEMPO 3023/0104 18015G25KT TEMPO 0101/0106 RA TEMPO 0104/0110 22020G30KT BKN012 BECMG 0106/0109 24015G25KT TEMPO 0110/0118 SHRA BKN015TCU PROB30 TEMPO 0111/0115 24020G30KT TSRA BKN012CB BECMG 0112/0114 24011KT=

    Metar: METAR EDDL 302150Z AUTO 17015KT CAVOK 13/07 Q1008 NOSIG=

  • Luxeuil (LFSX)

    Taf: TAF LFSX 302000Z NIL=

    Metar: METAR LFSX 302200Z AUTO 10005KT 9999 FEW001 06/05 Q1015=

  • Eindhoven (EHEH)

    Taf: TAF EHEH 301737Z 3018/0124 19010KT CAVOK BECMG 3019/3021 20014G24KT BECMG 3022/3024 19018G30KT 4000 RA FEW015 OVC040 BECMG 0100/0102 SCT008 BKN012 TEMPO 0100/0106 2500 RADZ +RA FEW004 BKN005 BECMG 0105/0107 25012KT 9999 NSW FEW015 SCT020 TEMPO 0107/0124 27012G25KT 4000 SHRA FEW010 SCT020CB BKN025 PROB30 TEMPO 0109/0113 28015G30KT 2500 TSRA SCT009 SCT015CB BKN018=

    Metar: METAR EHEH 302155Z AUTO 19014KT 170V230 9999 FEW052 BKN059 OVC066 14/08 Q1006 BLU=

  • Niederrhein (EDLV)

    Taf: TAF EDLV 301700Z 3018/0118 18008KT 9999 BKN030 BECMG 3021/3024 19013KT RA BECMG 0100/0103 BKN012 TEMPO 0102/0105 19020G30KT BECMG 0103/0106 NSW TEMPO 0105/0108 BKN007 BECMG 0106/0109 26012KT BECMG 0108/0111 SCT020 TEMPO 0110/0118 SHRA BKN015TCU PROB30 TEMPO 0110/0115 27015G30KT TSRA BKN012CB=

    Metar: METAR EDLV 302150Z 18010KT 150V210 CAVOK 13/08 Q1006=

  • Dortmund/Wickede (EDLW)

    Taf: TAF AMD EDLW 302150Z 3021/0118 CNL=

    Metar: METAR EDLW 302150Z AUTO 19010KT 9999 // NCD 12/05 Q1008=

  • Stuttgart/Echterdingen (EDDS)

    Taf: TAF EDDS 301700Z 3018/0118 VRB03KT CAVOK BECMG 0100/0104 20005KT BECMG 0106/0108 20010KT PROB30 TEMPO 0108/0112 22015G25KT RA=

    Metar: METAR EDDS 302150Z AUTO VRB02KT 9999 FEW035 07/06 Q1014=

  • Basel-Mühlhausen (LFSB)

    Taf: TAF AMD LFSB 301752Z 3018/0118 VRB04KT CAVOK BECMG 0106/0108 -RA BKN035 BECMG 0110/0112 NSW TEMPO 0115/0118 25012KT -SHRA FEW025TCU PROB30 TEMPO 0115/0118 BKN014=

    Metar: METAR LFSB 302200Z AUTO VRB03KT 9000 NSC 07/06 Q1016 NOSIG=

  • Lille (LFQQ)

    Taf: TAF LFQQ 301700Z 3018/0124 20012KT 9999 SCT035 BKN150 BECMG 3019/3022 19020G33KT RA BKN013 OVC030 TEMPO 0100/0102 3000 BKN007 OVC013 BECMG 0102/0104 25012KT NSW SCT030 TEMPO 0110/0112 28015G25KT 3000 SHRA BKN020CB TEMPO 0112/0117 26015G25KT=

    Metar: METAR LFQQ 302200Z AUTO 19016KT 8000 -RA FEW022/// SCT039/// BKN048/// ///TCU 12/10 Q1005 BECMG 19020G33KT RA BKN013 OVC030=

  • Paris/Charles de Gaulle (LFPG)

    Taf: TAF LFPG 301700Z 3018/0124 21015KT CAVOK TX19/0115Z TN12/0100Z BECMG 3019/3021 21015G25KT -RA BKN100 TEMPO 3022/0106 RA BKN012 PROB30 TEMPO 3022/0104 4000 +RA BKN008 TEMPO 0109/0116 27015G25KT FEW025TCU BECMG 0117/0119 25008KT=

    Metar: METAR LFPG 302200Z 20015KT 9999 -RA NSC 12/10 Q1010 TEMPO 21015G25KT BKN012=

  • Paderborn/Lippstadt (EDLP)

    Taf: TAF EDLP 301700Z 3018/0118 17008KT 9999 SCT020 BECMG 3023/0101 19013KT TEMPO 0103/0107 RA TEMPO 0104/0114 24015G25KT TEMPO 0106/0110 BKN012 BECMG 0109/0112 25012KT TEMPO 0110/0118 SHRA BKN015TCU PROB30 TEMPO 0110/0115 25020G30KT TSRA BKN012CB=

    Metar: METAR EDLP 302150Z 17010KT CAVOK 11/04 Q1009=

  • Paris/Le Bourget (LFPB)

    Taf: TAF LFPB 301700Z 3018/0118 21012KT CAVOK BECMG 3019/3021 21015G25KT -RA BKN100 TEMPO 3022/0106 RA BKN014 PROB30 TEMPO 3022/0104 4000 +RA BKN010 TEMPO 0109/0116 27015G25KT FEW025TCU BECMG 0116/0118 25008KT=

    Metar: METAR LFPB 302200Z AUTO 18013KT 9999 -RA ///TCU 13/10 Q1010 TEMPO 4000 +RA BKN010 BECMG 21015G25KT=

  • Rotterdam (EHRD)

    Taf: TAF EHRD 301709Z 3018/0124 20013KT 9999 SCT025 BECMG 3019/3022 19018KT BECMG 3022/3024 19022G33KT 7000 RA BKN014 TEMPO 0100/0104 4000 RADZ SHRA BKN008 FEW040CB BECMG 0103/0105 23010KT 9999 NSW SCT020 TEMPO 0106/0110 6000 SHRA SCT025CB BKN030 PROB30 TEMPO 0106/0109 27015G25KT 4000 TSRAGS SCT020CB BKN025 BECMG 0107/0109 28017KT BECMG 0115/0118 25010KT PROB40 TEMPO 0117/0124 28015G25KT 7000 SHRA SCT025CB SCT030=

    Metar: METAR EHRD 302155Z AUTO 19015KT 160V230 9999 -SHRA BKN015CB 12/10 Q1002 RERAGR BECMG 7000=

  • Zürich/Kloten (LSZH)

    Taf: TAF LSZH 302025Z 3021/0203 VRB02KT 9999 FEW025 BKN050 TX15/0114Z TN05/0106Z PROB40 0100/0106 1500 BCFG NSC PROB30 0101/0106 0400 FG VV002 BECMG 0107/0110 22010KT TEMPO 0109/0122 25015G25KT TEMPO 0109/0124 RA=

    Metar: METAR LSZH 302150Z AUTO VRB02KT 9999 FEW027 07/06 Q1015 BECMG 4000 BR=

  • Oostende/Intl (EBOS)

    Taf: TAF EBOS 301700Z 3018/0124 20016KT CAVOK TEMPO 3018/0101 19020G32KT 3500 RA RADZ BECMG 3020/3023 BKN014 PROB40 TEMPO 3021/0103 2500 DZ DZA BKN006 BECMG 0103/0105 27012KT TEMPO 0105/0118 27015G25KT=

    Metar: METAR EBOS 302150Z 18015KT 7000 RA FEW020 BKN035 11/09 Q1003 TEMPO 18015G28KT=

  • Paris/Orly (LFPO)

    Taf: TAF LFPO 301700Z 3018/0124 23010KT CAVOK BECMG 3019/3021 21015G25KT -RA BECMG 3021/3023 BKN014 TEMPO 3023/0107 21015G30KT 3000 RA OVC009 PROB40 TEMPO 0103/0107 OVC005 BECMG 0107/0109 NSW SCT020 PROB30 TEMPO 0110/0116 25015G25KT -SHRA SCT030TCU BECMG 0119/0121 4000 -RA BKN025=

    Metar: METAR LFPO 302200Z AUTO 20010KT 170V230 9999 FEW033/// BKN074/// OVC086/// ///TCU 12/10 Q1010 TEMPO 21015G30KT 3000 RA OVC009=

  • Beauvais (LFOB)

    Taf: TAF LFOB 301700Z 3018/0118 21013KT 9999 SCT035 BKN100 BECMG 3019/3022 19017G27KT RA BKN013 OVC020 TEMPO 0100/0103 3000 BKN007 OVC013 BECMG 0103/0106 25012KT NSW SCT030 TEMPO 0108/0116 3000 SHRA BKN020TCU=

    Metar: METAR LFOB 302200Z AUTO 19013KT 9999 FEW034/// BKN047/// BKN054/// ///TCU 12/10 Q1007 BECMG 19017G27KT RA BKN013 OVC020=

  • Münster/Intl (EDDG)

    Taf: TAF EDDG 301700Z 3018/0118 16006KT 9999 SCT030 BECMG 3022/0101 18011KT TEMPO 0102/0106 RA BECMG 0103/0106 BKN012 TEMPO 0105/0107 BKN007 BECMG 0107/0110 24013KT SCT020 TEMPO 0110/0117 SHRA BKN015TCU PROB30 TEMPO 0111/0114 25020G30KT TSRA BKN012CB TEMPO 0111/0115 25015G25KT BECMG 0116/0118 24008KT=

    Metar: METAR EDDG 302150Z AUTO 16007KT CAVOK 11/07 Q1007 NOSIG=

  • Illesheim (ETIK)

    Taf: TAF ETIK 302200Z 3022/0204 VRB06KT 9999 FEW030 QNH2988INS BECMG 0102/0103 21009KT 6000 BR SCT040 QNH2988INS BECMG 0107/0108 22012KT 8000 -SHRA OVC030 QNH2984INS BECMG 0111/0112 23015G25KT 6000 SHRA OVC030 QNH2988INS BECMG 0115/0116 24015KT 8000 -SHRA BKN030 OVC100 QNH2990INS TX14/014Z TN04/0103Z LAST NO AMDS AFT 3022 NEXT 0106=

    Metar: METAR ETIK 302155Z AUTO 23003KT 9999 CLR 06/04 A2992 RMK AO2 SLP141 T00620042 $=

  • Duebendorf (LSMD)

    Taf: TAF LSMD 301625Z 3017/0123 VRB02KT 9999 FEW025 BKN055 PROB40 0100/0106 1500 BCFG NSC PROB30 0100/0106 0400 FG VV002 BECMG 0107/0110 22010KT TEMPO 0109/0123 25015G25KT RA=

    Metar: METAR LSMD 302150Z AUTO 11002KT 9999NDV NCD 07/06 Q1015 RMK=

  • Villacoublay (LFPV)

    Taf: TAF LFPV 302000Z 3021/0121 21012G22KT 8000 BKN030 TX18/0115Z TN12/0105Z BECMG 3023/0101 4500 RA BKN005 OVC015 BECMG 0104/0106 27008KT CAVOK TEMPO 0106/0109 SHRA BKN040TCU TEMPO 0115/0116 4600 -RA=

    Metar: METAR LFPV 302200Z AUTO 21010KT 170V240 9999 FEW024/// BKN070/// OVC086/// ///TCU 12/09 Q1010 BECMG 4500 RA BKN005 OVC015=

  • Payerne (LSMP)

    Taf: TAF LSMP 301625Z 3017/0123 VRB02KT 9999 FEW025 BKN060 PROB30 TEMPO 0103/0108 1200 BCFG BKN010 BECMG 0107/0109 23012KT TEMPO 0107/0116 RA=

    Metar: METAR LSMP 302150Z AUTO 20003KT 160V240 9999NDV SCT037 07/07 Q1016 RMK=

  • Amsterdam/Schipol (EHAM)

    Taf: TAF EHAM 301709Z 3018/0124 20013KT 9999 SCT025 BECMG 3019/3022 19018KT BECMG 3022/3024 19022G33KT 7000 RA BKN014 TEMPO 0100/0104 4000 RADZ SHRA BKN008 FEW040CB BECMG 0103/0105 23010KT 9999 NSW SCT020 TEMPO 0106/0110 6000 SHRA SCT025CB BKN030 PROB30 TEMPO 0106/0109 27015G25KT 4000 TSRAGS SCT020CB BKN025 BECMG 0107/0109 28017KT BECMG 0115/0118 25010KT PROB40 TEMPO 0117/0124 28015G25KT 7000 SHRA SCT025CB SCT030=

    Metar: METAR EHAM 302155Z 20018G28KT 9999 RA FEW021 12/10 Q1003 TEMPO 7000=

  • Emmen (LSME)

    Taf: TAF LSME 301625Z 3017/0123 VRB02KT 9999 SCT020 BKN045 BKN060 PROB40 0100/0106 1500 BCFG NSC PROB30 0100/0106 0400 FG VV002 TEMPO 0110/0123 25012G22KT RA=

    Metar: METAR LSME 302150Z AUTO 24001KT 8000NDV SCT068 07/07 Q1015 RMK=

  • Friedrichshafen (EDNY)

    Taf: TAF EDNY 301700Z 3018/0118 VRB03KT 9999 FEW025 PROB40 TEMPO 3021/0105 4000 BR BECMG 0102/0104 23005KT BECMG 0107/0109 24010KT TEMPO 0109/0116 RA=

    Metar: METAR EDNY 302150Z AUTO VRB01KT 9999 // OVC059/// 07/07 Q1014=

  • Alpnach (LSMA)

    Taf: TAF LSMA 301625Z 3017/0123 VRB01KT 9999 FEW022 BKN040 BKN060 PROB30 TEMPO 0102/0106 4000 MIFG NSC TEMPO 0108/0123 22010KT RA=

    Metar: METAR LSMA 302150Z AUTO 00000KT 9000NDV FEW066 08/07 Q1015 RMK=

  • Meiringen (LSMM)

    Taf: TAF LSMM 301625Z 3017/0123 VRB02KT 9999 FEW020 SCT030 BKN060 PROB40 TEMPO 0100/0106 4000 MIFG BKN003 PROB30 TEMPO 0100/0106 1500 BCFG TEMPO 0108/0121 27010KT RA=

    Metar: METAR LSMM 302150Z AUTO 00000KT 9999NDV FEW061 08/08 Q1015 RMK=

  • Nürnberg (EDDN)

    Taf: TAF EDDN 301700Z 3018/0118 VRB03KT CAVOK BECMG 3019/3021 12005KT PROB30 TEMPO 3022/0103 2000 BCFG BECMG 0105/0107 18009KT PROB30 TEMPO 0108/0113 RA BECMG 0113/0115 24012KT PROB30 TEMPO 0114/0118 SHRA BKN020CB=

    Metar: METAR EDDN 302150Z AUTO 11006KT CAVOK 05/05 Q1013=

  • Rouen (LFOP)

    Taf: TAF AMD LFOP 302020Z 3020/0118 CNL=

    Metar: METAR LFOP 302200Z AUTO 19021KT 9999 -RA BKN012 BKN026 OVC031 12/10 Q1006=

  • Evreux (LFOE)

    Taf: TAF LFOE 302000Z 3021/0121 24020G30KT 4000 RA BKN020 OVC040 BECMG 0100/0101 2000 RADZ BKN008 OVC015 BECMG 0105/0107 27010G20KT 9999 NSW BKN015 TEMPO 0112/0116 27015G25KT 4000 SHRA SCT020TCU PROB30 TEMPO 0116/0118 4000 -SHRA SCT025TCU BECMG 0119/0121 4000 RA BKN030=

    Metar: METAR LFOE 302200Z AUTO 21018KT 9999 BKN015/// OVC040/// ///TCU 12/11 Q1008 BECMG 24020G30KT 4000 RA BKN020 OVC040=

  • Erfurt/Bindersleben (EDDE)

    Taf: TAF EDDE 301700Z 3018/0118 21007KT CAVOK BECMG 3021/3024 20012KT BECMG 0102/0106 21015G25KT BECMG 0106/0110 23020G35KT PROB30 TEMPO 0106/0109 RA PROB30 TEMPO 0115/0118 SHRA SCT035CB=

    Metar: METAR EDDE 302150Z AUTO 20008KT CAVOK 08/04 Q1012=